Village Station, Georgia
Current Conditions -  °F | °C
As of 6:58 AM on Thursday 23 Oct 2014 (Local Time) from KSVN Reporting Station
Clear Clear  
Wind Chill: 47°   Ceiling: Unl
Heat Index: 49°   Visibility: 10mi
Dew Point: 44°   Wind: 6mph
Humidity: 83%   Direction: 360°N
Pressure: 30.07"   Gusts: NA
Location:  31.9252°N, 81.0354°W
Report Text: KSVN 231058Z AUTO 36005KT 10SM CLR 09/07 A3007 RMK AO2 SLP186 T00940067
Loading
Personal Weather Stations






























Interactive Weather Map
Tropical Storm Tracking
New forecast layout! Learn more

10-Day Weather Forecast

Advertisements
Track Severe Weather on mobile